Glenwood Springs, CO

7:03 PM MST on February 11, 2016 (GMT -0700)
RAWS | | Change Station
CLOSE
Current Station
Personal Weather Station
Location: Glenwood Springs, CO
Elevation: 8792 ft
Nearby Weather Stations

Elev 8792 ft 39.59 °N, 107.40 °W | Updated 1 hour ago

Clear
Clear
34.0 °F
Feels Like 26 °F
N
10.0
Wind Variable Wind from NNW
Gusts 12.0 mph

Today
High -- | Low -- °F
--% Chance of Precip.
Yesterday
High -- | Low -- °F
Precip. -- in
Pressure 30.53 in
Visibility 10.0 miles
Clouds Clear
Windchill 26 °F
Dew Point 12.0 °F
Humidity 40%
Rainfall in
Snow Depth Not available.
7:07 AM 5:41 PM
Waxing Crescent, 16% visible
METAR KRIL 120153Z AUTO 00000KT 10SM CLR 00/M07 A3040 RMK AO2 SLP338 T00001067
Pressure 30.53 in
Visibility 10.0 miles
Clouds Clear
Windchill 26 °F
Dew Point 12.0 °F
Humidity 40%
Rainfall in
Snow Depth Not available.
7:07 AM 5:41 PM
Waxing Crescent, 16% visible
METAR KRIL 120153Z AUTO 00000KT 10SM CLR 00/M07 A3040 RMK AO2 SLP338 T00001067

10-Day Weather Forecast

Almanac

Astronomy

Feb. 11, 2016 Rise Set
Actual Time
Civil Twilight
Nautical Twilight
Astronomical Twilight
Moon
Length of Visible Light
Length of Day
Tomorrow will be .
, % of the Moon is Illuminated

Today's Extremes

State Highs State Lows

Community

WunderPhotos

Upload Photos

1,892,223 photos uploaded!

WunderBlog® & News

Nearby

Air Quality

  Air Quality AQ Index Pollutant
Not available.

Snow Depth

Station Depth Elevation

Earthquake Activity

City Distance Mag. Time & Date
Minimum magnitude displayed is 2.5.

Coastal Water Temperatures

Place Temperature

Stations

Nearby Weather Stations

Station Location Temp. Windchill Dew Point Humidity Wind Precip. Elev Updated Type
                   

Watches & Warnings

There are currently no watches in effect.